createdAt,value
2023-04-29T00:00:17.944Z,98193.84
2023-04-29T00:02:19.753Z,98195.00
2023-04-29T00:04:21.429Z,98179.03
2023-04-29T00:06:23.471Z,98184.56
2023-04-29T00:08:25.697Z,98187.81
2023-04-29T00:10:27.657Z,98185.69
2023-04-29T00:12:30.309Z,98183.25
2023-04-29T00:14:31.747Z,98184.88
2023-04-29T00:16:33.442Z,98188.78
2023-04-29T00:18:34.914Z,98191.84
2023-04-29T00:20:38.081Z,98192.66
2023-04-29T00:22:39.797Z,98197.69
2023-04-29T00:24:41.236Z,98192.16
2023-04-29T00:26:42.676Z,98178.66
2023-04-29T00:28:44.126Z,98190.00
2023-04-29T00:30:45.846Z,98185.31
2023-04-29T00:32:47.736Z,98190.84
2023-04-29T00:34:49.578Z,98195.88
2023-04-29T00:36:51.271Z,98197.81
2023-04-29T00:38:52.809Z,98187.91
2023-04-29T00:40:55.561Z,98183.50
2023-04-29T00:42:57.405Z,98183.81
2023-04-29T00:44:58.889Z,98188.03
2023-04-29T00:47:00.764Z,98194.66
2023-04-29T00:49:02.569Z,98191.09
2023-04-29T00:51:05.799Z,98191.91
2023-04-29T00:53:08.081Z,98195.00
2023-04-29T00:55:12.869Z,98188.94
2023-04-29T00:57:14.938Z,98190.09
2023-04-29T00:59:17.193Z,98189.28
2023-04-29T01:01:20.105Z,98191.03
2023-04-29T01:03:22.706Z,98195.72
2023-04-29T01:05:24.501Z,98193.59
2023-04-29T01:07:34.617Z,98191.94
2023-04-29T01:10:09.630Z,98186.25
2023-04-29T01:12:32.926Z,98194.53
2023-04-29T01:14:37.092Z,98191.56
2023-04-29T01:16:47.604Z,98195.47
2023-04-29T01:18:59.186Z,98195.28
2023-04-29T01:21:05.657Z,98190.56
2023-04-29T01:23:07.056Z,98187.81
2023-04-29T01:25:10.000Z,98186.78
2023-04-29T01:27:46.595Z,98193.75
2023-04-29T01:30:02.362Z,98192.38
2023-04-29T01:32:05.651Z,98202.31
2023-04-29T01:34:19.941Z,98191.06
2023-04-29T01:36:33.498Z,98200.78
2023-04-29T01:38:44.844Z,98200.59
2023-04-29T01:41:23.811Z,98200.09
2023-04-29T01:43:34.372Z,98200.72
2023-04-29T01:45:44.939Z,98195.00
2023-04-29T01:47:49.110Z,98201.66
2023-04-29T01:49:51.840Z,98197.25
2023-04-29T01:51:53.623Z,98197.88
2023-04-29T01:53:55.446Z,98202.88
2023-04-29T01:55:57.336Z,98196.84
2023-04-29T01:58:04.720Z,98195.81
2023-04-29T02:00:28.340Z,98201.97
2023-04-29T02:02:30.026Z,98194.81
2023-04-29T02:04:39.755Z,98203.09
2023-04-29T02:06:41.287Z,98198.19
2023-04-29T02:08:43.590Z,98194.94
2023-04-29T02:10:56.439Z,98195.53
2023-04-29T02:13:18.441Z,98192.78
2023-04-29T02:15:21.086Z,98196.66
2023-04-29T02:17:22.719Z,98190.63
2023-04-29T02:19:24.151Z,98193.72
2023-04-29T02:21:28.456Z,98192.38
2023-04-29T02:23:30.279Z,98193.50
2023-04-29T02:25:31.782Z,98192.69
2023-04-29T02:27:33.773Z,98191.88
2023-04-29T02:29:35.182Z,98201.88
2023-04-29T02:31:36.698Z,98202.19
2023-04-29T02:33:38.620Z,98200.03
2023-04-29T02:35:40.589Z,98205.06
2023-04-29T02:37:42.215Z,98198.22
2023-04-29T02:39:43.699Z,98195.47
2023-04-29T02:41:47.644Z,98202.09
2023-04-29T02:43:49.173Z,98212.28
2023-04-29T02:45:50.973Z,98208.19
2023-04-29T02:47:52.491Z,98204.94
2023-04-29T02:49:54.379Z,98209.13
2023-04-29T02:51:55.947Z,98211.06
2023-04-29T02:53:58.599Z,98206.69
2023-04-29T02:56:00.042Z,98207.50
2023-04-29T02:58:01.538Z,98207.78
2023-04-29T03:00:04.458Z,98218.81
2023-04-29T03:02:05.949Z,98217.22
2023-04-29T03:04:07.723Z,98217.50
2023-04-29T03:06:09.414Z,98224.44
2023-04-29T03:08:11.184Z,98222.00
2023-04-29T03:10:12.807Z,98224.25
2023-04-29T03:12:15.114Z,98223.72
2023-04-29T03:14:17.089Z,98225.13
2023-04-29T03:16:18.570Z,98221.59
2023-04-29T03:18:20.096Z,98231.28
2023-04-29T03:20:22.958Z,98229.59
2023-04-29T03:22:24.561Z,98225.19
2023-04-29T03:24:26.277Z,98222.44
2023-04-29T03:26:27.695Z,98227.16
2023-04-29T03:28:29.133Z,98218.34
2023-04-29T03:30:30.609Z,98225.81
2023-04-29T03:32:33.119Z,98217.03
2023-04-29T03:34:35.292Z,98231.94
2023-04-29T03:36:49.682Z,98219.59
2023-04-29T03:38:51.302Z,98229.78
2023-04-29T03:40:53.778Z,98227.03
2023-04-29T03:42:55.413Z,98228.13
2023-04-29T03:44:56.991Z,98228.13
2023-04-29T03:46:58.554Z,98232.03
2023-04-29T03:48:59.973Z,98230.38
2023-04-29T03:51:01.691Z,98233.47
2023-04-29T03:53:03.380Z,98225.47
2023-04-29T03:55:05.875Z,98234.28
2023-04-29T03:57:07.490Z,98235.91
2023-04-29T03:59:09.263Z,98240.59
2023-04-29T04:01:13.004Z,98239.78
2023-04-29T04:03:19.162Z,98237.53
2023-04-29T04:05:21.400Z,98238.66
2023-04-29T04:07:28.045Z,98244.16
2023-04-29T04:09:52.898Z,98250.50
2023-04-29T04:11:54.601Z,98243.34
2023-04-29T04:13:56.098Z,98244.16
2023-04-29T04:15:58.954Z,98251.00
2023-04-29T04:18:00.680Z,98258.16
2023-04-29T04:20:02.322Z,98262.84
2023-04-29T04:22:04.726Z,98260.09
2023-04-29T04:24:07.018Z,98257.84
2023-04-29T04:26:08.548Z,98255.09
2023-04-29T04:28:22.221Z,98259.50
2023-04-29T04:30:36.020Z,98267.44
2023-04-29T04:32:39.197Z,98264.69
2023-04-29T04:34:40.712Z,98269.94
2023-04-29T04:36:42.288Z,98264.41
2023-04-29T04:38:43.942Z,98268.28
2023-04-29T04:40:47.242Z,98266.34
2023-04-29T04:43:02.409Z,98263.88
2023-04-29T04:45:04.148Z,98272.38
2023-04-29T04:47:16.556Z,98272.69
2023-04-29T04:49:35.057Z,98272.69
2023-04-29T04:51:36.906Z,98282.06
2023-04-29T04:53:40.120Z,98278.69
2023-04-29T04:55:53.003Z,98279.81
2023-04-29T04:57:55.048Z,98281.47
2023-04-29T04:59:57.102Z,98277.56
2023-04-29T05:01:58.836Z,98286.91
2023-04-29T05:04:00.930Z,98286.09
2023-04-29T05:06:02.649Z,98281.41
2023-04-29T05:08:04.966Z,98283.00
2023-04-29T05:10:14.646Z,98286.31
2023-04-29T05:12:25.400Z,98281.31
2023-04-29T05:14:27.048Z,98285.69
2023-04-29T05:16:29.079Z,98286.22
2023-04-29T05:18:31.144Z,98283.47
2023-04-29T05:20:33.969Z,98287.25
2023-04-29T05:22:36.764Z,98286.41
2023-04-29T05:24:38.282Z,98292.16
2023-04-29T05:26:40.387Z,98288.78
2023-04-29T05:28:42.067Z,98287.66
2023-04-29T05:30:44.859Z,98291.75
2023-04-29T05:32:47.167Z,98296.16
2023-04-29T05:34:51.167Z,98300.22
2023-04-29T05:36:52.925Z,98298.31
2023-04-29T05:38:54.700Z,98303.19
2023-04-29T05:40:56.564Z,98303.72
2023-04-29T05:43:36.968Z,98308.09
2023-04-29T05:45:38.973Z,98307.81
2023-04-29T05:47:40.501Z,98314.66
2023-04-29T05:49:42.055Z,98306.06
2023-04-29T05:51:43.952Z,98307.41
2023-04-29T05:53:45.519Z,98313.41
2023-04-29T05:55:48.011Z,98321.41
2023-04-29T05:57:50.891Z,98307.28
2023-04-29T05:59:55.158Z,98311.38
2023-04-29T06:01:57.342Z,98316.31
2023-04-29T06:03:59.190Z,98314.38
2023-04-29T06:06:16.968Z,98318.44
2023-04-29T06:08:35.363Z,98317.94
2023-04-29T06:10:39.394Z,98320.16
2023-04-29T06:12:40.953Z,98320.16
2023-04-29T06:14:42.440Z,98318.84
2023-04-29T06:16:43.944Z,98323.03
2023-04-29T06:18:45.986Z,98322.84
2023-04-29T06:20:48.662Z,98329.25
2023-04-29T06:22:50.141Z,98331.50
2023-04-29T06:24:52.527Z,98336.50
2023-04-29T06:27:09.164Z,98345.19
2023-04-29T06:29:12.533Z,98348.22
2023-04-29T06:31:14.150Z,98355.47
2023-04-29T06:33:16.982Z,98357.19
2023-04-29T06:35:18.812Z,98361.66
2023-04-29T06:37:47.566Z,98359.50
2023-04-29T06:40:09.865Z,98364.00
2023-04-29T06:42:34.659Z,98360.19
2023-04-29T06:44:59.486Z,98359.41
2023-04-29T06:47:31.028Z,98359.13
2023-04-29T06:49:41.005Z,98353.34
2023-04-29T06:51:42.927Z,98358.63
2023-04-29T06:53:44.406Z,98357.50
2023-04-29T06:55:47.405Z,98363.56
2023-04-29T06:57:48.889Z,98361.59
2023-04-29T06:59:50.441Z,98365.50
2023-04-29T07:01:52.340Z,98364.38
2023-04-29T07:03:54.631Z,98367.34
2023-04-29T07:05:56.776Z,98364.28
2023-04-29T07:07:58.769Z,98373.38
2023-04-29T07:10:00.209Z,98376.66
2023-04-29T07:12:02.653Z,98383.81
2023-04-29T07:14:04.172Z,98385.16
2023-04-29T07:16:06.342Z,98384.56
2023-04-29T07:18:07.899Z,98384.75
2023-04-29T07:20:09.902Z,98380.56
2023-04-29T07:22:12.705Z,98395.09
2023-04-29T07:24:14.094Z,98387.31
2023-04-29T07:26:17.357Z,98393.91
2023-04-29T07:28:20.362Z,98387.78
2023-04-29T07:30:22.106Z,98389.63
2023-04-29T07:32:23.644Z,98388.72
2023-04-29T07:34:25.437Z,98392.50
2023-04-29T07:36:28.631Z,98388.03
2023-04-29T07:38:31.173Z,98390.69
2023-04-29T07:40:32.823Z,98399.19
2023-04-29T07:42:34.272Z,98399.88
2023-04-29T07:44:39.926Z,98393.75
2023-04-29T07:46:41.905Z,98400.63
2023-04-29T07:48:43.787Z,98394.50
2023-04-29T07:50:45.723Z,98399.41
2023-04-29T07:52:47.801Z,98402.34
2023-04-29T07:54:51.672Z,98409.22
2023-04-29T07:56:53.416Z,98415.47
2023-04-29T07:58:55.670Z,98411.59
2023-04-29T08:00:57.148Z,98417.31
2023-04-29T08:03:01.576Z,98417.03
2023-04-29T08:05:04.351Z,98422.75
2023-04-29T08:07:11.991Z,98426.34
2023-04-29T08:09:13.474Z,98433.50
2023-04-29T08:11:20.665Z,98427.97
2023-04-29T08:13:22.419Z,98427.97
2023-04-29T08:15:24.389Z,98432.06
2023-04-29T08:17:26.029Z,98432.91
2023-04-29T08:19:27.521Z,98437.28
2023-04-29T08:21:29.343Z,98439.75
2023-04-29T08:23:30.828Z,98443.84
2023-04-29T08:25:32.718Z,98450.97
2023-04-29T08:27:34.355Z,98445.16
2023-04-29T08:29:36.049Z,98457.84
2023-04-29T08:31:37.973Z,98452.81
2023-04-29T08:33:39.401Z,98456.41
2023-04-29T08:35:41.553Z,98463.25
2023-04-29T08:37:43.346Z,98466.03
2023-04-29T08:39:46.796Z,98460.50
2023-04-29T08:41:51.126Z,98461.31
2023-04-29T08:43:52.606Z,98467.66
2023-04-29T08:45:55.097Z,98475.63
2023-04-29T08:47:57.900Z,98481.16
2023-04-29T08:50:04.345Z,98471.44
2023-04-29T08:52:06.211Z,98475.53
2023-04-29T08:54:08.011Z,98480.78
2023-04-29T08:56:18.036Z,98473.50
2023-04-29T08:58:19.582Z,98479.75
2023-04-29T09:00:21.578Z,98479.66
2023-04-29T09:02:25.211Z,98478.72
2023-04-29T09:04:32.660Z,98478.94
2023-04-29T09:06:34.288Z,98485.97
2023-04-29T09:08:36.049Z,98481.16
2023-04-29T09:10:42.904Z,98487.09
2023-04-29T09:12:50.552Z,98485.53
2023-04-29T09:14:52.278Z,98487.31
2023-04-29T09:16:53.908Z,98490.16
2023-04-29T09:18:56.657Z,98477.25
2023-04-29T09:20:58.144Z,98474.25
2023-04-29T09:23:03.981Z,98481.16
2023-04-29T09:25:14.858Z,98480.09
2023-04-29T09:27:29.229Z,98485.59
2023-04-29T09:29:32.865Z,98484.72
2023-04-29T09:31:34.353Z,98492.47
2023-04-29T09:33:56.262Z,98490.25
2023-04-29T09:36:03.383Z,98491.66
2023-04-29T09:38:21.056Z,98485.84
2023-04-29T09:40:40.449Z,98485.22
2023-04-29T09:42:48.566Z,98488.53
2023-04-29T09:44:50.089Z,98489.38
2023-04-29T09:46:59.961Z,98479.16
2023-04-29T09:49:01.664Z,98483.94
2023-04-29T09:51:03.541Z,98483.97
2023-04-29T09:53:09.918Z,98485.13
2023-04-29T09:55:12.511Z,98478.81
2023-04-29T09:57:15.698Z,98489.09
2023-04-29T09:59:18.562Z,98491.56
2023-04-29T10:01:22.367Z,98487.47
2023-04-29T10:05:28.652Z,98502.53
2023-04-29T10:07:30.294Z,98500.41
2023-04-29T10:09:31.843Z,98495.03
2023-04-29T10:11:34.522Z,98485.75
2023-04-29T10:13:38.446Z,98491.47
2023-04-29T10:15:50.329Z,98496.38
2023-04-29T10:18:16.860Z,98490.66
2023-04-29T10:20:25.609Z,98489.03
2023-04-29T10:22:38.945Z,98492.47
2023-04-29T10:24:51.926Z,98499.97
2023-04-29T10:27:00.698Z,98497.84
2023-04-29T10:29:03.428Z,98497.69
2023-04-29T10:31:07.662Z,98492.44
2023-04-29T10:33:11.912Z,98497.00
2023-04-29T10:35:15.327Z,98493.69
2023-04-29T10:37:17.587Z,98495.00
2023-04-29T10:39:33.105Z,98492.88
2023-04-29T10:41:45.769Z,98494.34
2023-04-29T10:43:47.889Z,98496.63
2023-04-29T10:45:49.326Z,98492.38
2023-04-29T10:48:02.974Z,98488.94
2023-04-29T10:50:04.968Z,98489.09
2023-04-29T10:52:06.500Z,98493.19
2023-04-29T10:54:14.822Z,98498.38
2023-04-29T10:56:16.349Z,98497.25
2023-04-29T10:58:47.140Z,98499.22
2023-04-29T11:00:48.754Z,98491.69
2023-04-29T11:02:50.732Z,98491.69
2023-04-29T11:05:12.298Z,98490.72
2023-04-29T11:07:27.572Z,98503.00
2023-04-29T11:09:37.361Z,98500.22
2023-04-29T11:11:54.027Z,98499.88
2023-04-29T11:13:56.096Z,98504.28
2023-04-29T11:16:05.493Z,98506.25
2023-04-29T11:18:11.506Z,98518.84
2023-04-29T11:20:16.598Z,98504.13
2023-04-29T11:22:18.045Z,98506.44
2023-04-29T11:24:19.790Z,98511.50
2023-04-29T11:26:21.607Z,98508.22
2023-04-29T11:28:24.378Z,98504.97
2023-04-29T11:30:28.592Z,98520.03
2023-04-29T11:32:32.052Z,98519.81
2023-04-29T11:34:33.580Z,98520.16
2023-04-29T11:36:36.182Z,98512.97
2023-04-29T11:38:41.262Z,98517.69
2023-04-29T11:40:48.799Z,98523.59
2023-04-29T11:42:50.374Z,98523.91
2023-04-29T11:44:53.647Z,98530.94
2023-04-29T11:47:02.420Z,98525.72
2023-04-29T11:49:03.826Z,98534.06
2023-04-29T11:51:05.345Z,98541.94
2023-04-29T11:53:08.231Z,98538.31
2023-04-29T11:55:10.508Z,98542.56
2023-04-29T11:57:12.078Z,98544.88
2023-04-29T11:59:13.657Z,98547.97
2023-04-29T12:01:15.273Z,98545.53
2023-04-29T12:03:18.766Z,98543.41
2023-04-29T12:05:20.539Z,98544.56
2023-04-29T12:07:22.170Z,98551.25
2023-04-29T12:09:23.985Z,98554.66
2023-04-29T12:11:26.702Z,98553.84
2023-04-29T12:13:30.573Z,98550.94
2023-04-29T12:15:32.882Z,98555.66
2023-04-29T12:17:34.658Z,98556.31
2023-04-29T12:19:38.564Z,98557.47
2023-04-29T12:21:48.972Z,98567.75
2023-04-29T12:23:51.644Z,98559.72
2023-04-29T12:26:00.262Z,98571.19
2023-04-29T12:28:04.536Z,98560.06
2023-04-29T12:30:10.333Z,98561.22
2023-04-29T12:32:18.898Z,98560.41
2023-04-29T12:34:28.501Z,98577.06
2023-04-29T12:36:30.011Z,98573.13
2023-04-29T12:38:32.030Z,98577.88
2023-04-29T12:40:33.872Z,98569.22
2023-04-29T12:42:35.459Z,98558.94
2023-04-29T12:44:37.447Z,98569.22
2023-04-29T12:46:40.781Z,98572.00
2023-04-29T12:48:43.533Z,98574.94
2023-04-29T12:50:50.236Z,98571.84
2023-04-29T12:52:51.790Z,98578.38
2023-04-29T12:54:53.284Z,98564.16
2023-04-29T12:56:55.078Z,98570.22
2023-04-29T12:58:56.833Z,98570.34
2023-04-29T13:00:58.970Z,98572.00
2023-04-29T13:03:02.278Z,98564.97
2023-04-29T13:05:04.596Z,98559.59
2023-04-29T13:07:06.405Z,98563.31
2023-04-29T13:09:17.009Z,98564.63
2023-04-29T13:11:20.719Z,98563.63
2023-04-29T13:13:22.198Z,98558.25
2023-04-29T13:15:23.658Z,98565.44
2023-04-29T13:17:25.482Z,98559.72
2023-04-29T13:19:43.323Z,98564.97
2023-04-29T13:21:49.072Z,98566.75
2023-04-29T13:23:51.722Z,98578.03
2023-04-29T13:25:53.188Z,98571.00
2023-04-29T13:27:54.932Z,98565.09
2023-04-29T13:29:56.782Z,98565.59
2023-04-29T13:31:58.220Z,98568.84
2023-04-29T13:33:59.778Z,98569.66
2023-04-29T13:36:01.397Z,98564.59
2023-04-29T13:38:02.871Z,98566.72
2023-04-29T13:40:07.206Z,98566.72
2023-04-29T13:42:09.924Z,98577.00
2023-04-29T13:44:23.692Z,98574.22
2023-04-29T13:46:32.529Z,98573.91
2023-04-29T13:49:14.112Z,98578.00
2023-04-29T13:55:54.469Z,98581.25
2023-04-29T13:58:13.232Z,98577.66
2023-04-29T13:59:57.435Z,98579.59
2023-04-29T14:04:04.378Z,98586.00
2023-04-29T14:06:06.391Z,98583.69
2023-04-29T14:08:07.877Z,98585.34
2023-04-29T14:10:09.413Z,98587.28
2023-04-29T14:12:10.848Z,98586.81
2023-04-29T14:14:12.386Z,98582.41
2023-04-29T14:16:14.051Z,98591.91
2023-04-29T14:18:15.484Z,98593.03
2023-04-29T14:20:17.020Z,98589.44
2023-04-29T14:22:18.450Z,98596.00
2023-04-29T14:24:19.899Z,98600.72
2023-04-29T14:28:25.856Z,98603.84
2023-04-29T14:30:27.304Z,98604.19
2023-04-29T14:32:28.722Z,98603.69
2023-04-29T14:34:30.154Z,98612.34
2023-04-29T14:36:35.152Z,98610.72
2023-04-29T14:38:36.685Z,98606.97
2023-04-29T14:40:39.063Z,98610.41
2023-04-29T14:42:40.768Z,98613.53
2023-04-29T14:44:42.265Z,98620.88
2023-04-29T14:46:44.004Z,98614.81
2023-04-29T14:48:46.157Z,98615.78
2023-04-29T14:50:47.608Z,98628.03
2023-04-29T14:52:49.003Z,98629.84
2023-04-29T14:54:51.206Z,98624.63
2023-04-29T14:56:52.953Z,98630.84
2023-04-29T14:58:54.524Z,98633.91
2023-04-29T15:00:56.242Z,98635.72
2023-04-29T15:02:58.791Z,98636.38
2023-04-29T15:05:00.586Z,98636.53
2023-04-29T15:07:02.201Z,98634.75
2023-04-29T15:09:04.919Z,98639.16
2023-04-29T15:11:06.460Z,98639.31
2023-04-29T15:13:07.944Z,98631.94
2023-04-29T15:15:10.693Z,98639.28
2023-04-29T15:17:12.092Z,98633.38
2023-04-29T15:19:13.545Z,98633.88
2023-04-29T15:21:18.017Z,98640.72
2023-04-29T15:23:19.686Z,98638.69
2023-04-29T15:25:22.080Z,98647.16
2023-04-29T15:27:25.961Z,98647.31
2023-04-29T15:29:27.459Z,98652.19
2023-04-29T15:31:30.861Z,98647.13
2023-04-29T15:33:33.115Z,98651.69
2023-04-29T15:35:36.331Z,98651.31
2023-04-29T15:37:37.757Z,98653.41
2023-04-29T15:39:39.604Z,98647.19
2023-04-29T15:41:41.087Z,98651.72
2023-04-29T15:43:42.534Z,98646.63
2023-04-29T15:45:44.313Z,98655.91
2023-04-29T15:47:47.110Z,98656.53
2023-04-29T15:49:50.934Z,98667.16
2023-04-29T15:51:52.477Z,98664.66
2023-04-29T15:53:53.934Z,98661.72
2023-04-29T15:55:55.584Z,98659.59
2023-04-29T15:57:57.204Z,98663.28
2023-04-29T15:59:58.701Z,98669.94
2023-04-29T16:02:00.130Z,98671.72
2023-04-29T16:04:02.005Z,98666.81
2023-04-29T16:06:03.804Z,98671.53
2023-04-29T16:08:05.735Z,98671.03
2023-04-29T16:10:07.574Z,98681.63
2023-04-29T16:12:11.562Z,98677.53
2023-04-29T16:14:13.257Z,98677.81
2023-04-29T16:16:14.752Z,98682.03
2023-04-29T16:18:17.452Z,98691.81
2023-04-29T16:20:19.423Z,98698.31
2023-04-29T16:22:21.110Z,98695.03
2023-04-29T16:24:22.777Z,98698.91
2023-04-29T16:26:25.171Z,98704.28
2023-04-29T16:28:26.771Z,98700.50
2023-04-29T16:30:28.364Z,98701.44
2023-04-29T16:32:30.007Z,98705.31
2023-04-29T16:34:31.437Z,98700.94
2023-04-29T16:36:33.291Z,98711.31
2023-04-29T16:38:34.753Z,98714.69
2023-04-29T16:40:36.419Z,98715.31
2023-04-29T16:42:38.185Z,98720.66
2023-04-29T16:44:39.676Z,98713.81
2023-04-29T16:46:41.225Z,98717.19
2023-04-29T16:48:42.811Z,98725.00
2023-04-29T16:50:44.301Z,98731.97
2023-04-29T16:52:45.952Z,98732.09
2023-04-29T16:54:47.423Z,98724.41
2023-04-29T16:56:50.871Z,98726.16
2023-04-29T16:58:53.592Z,98728.69
2023-04-29T17:00:55.462Z,98737.59
2023-04-29T17:02:59.993Z,98729.09
2023-04-29T17:05:02.512Z,98731.66
2023-04-29T17:07:04.020Z,98731.78
2023-04-29T17:09:05.737Z,98728.50
2023-04-29T17:11:07.264Z,98731.06
2023-04-29T17:13:08.793Z,98744.16
2023-04-29T17:15:10.881Z,98748.06
2023-04-29T17:17:12.354Z,98741.59
2023-04-29T17:19:13.972Z,98743.66
2023-04-29T17:21:15.606Z,98747.88
2023-04-29T17:23:17.100Z,98745.38
2023-04-29T17:25:18.609Z,98746.00
2023-04-29T17:27:20.446Z,98751.03
2023-04-29T17:29:21.877Z,98747.25
2023-04-29T17:31:25.563Z,98734.53
2023-04-29T17:33:34.931Z,98746.19
2023-04-29T17:35:36.399Z,98754.28
2023-04-29T17:37:37.946Z,98756.00
2023-04-29T17:39:39.675Z,98751.41
2023-04-29T17:41:41.194Z,98755.59
2023-04-29T17:43:42.686Z,98754.56
2023-04-29T17:45:44.159Z,98761.53
2023-04-29T17:47:45.821Z,98763.78
2023-04-29T17:49:47.392Z,98759.66
2023-04-29T17:51:48.818Z,98762.47
2023-04-29T17:53:50.394Z,98761.44
2023-04-29T17:55:51.964Z,98772.28
2023-04-29T17:57:55.515Z,98770.94
2023-04-29T17:59:57.112Z,98772.34
2023-04-29T18:01:59.106Z,98771.03
2023-04-29T18:04:00.989Z,98783.22
2023-04-29T18:06:03.246Z,98774.91
2023-04-29T18:08:05.107Z,98785.16
2023-04-29T18:10:07.475Z,98792.63
2023-04-29T18:12:08.890Z,98792.63
2023-04-29T18:14:11.104Z,98793.13
2023-04-29T18:16:12.521Z,98791.19
2023-04-29T18:18:14.232Z,98797.22
2023-04-29T18:20:15.889Z,98802.47
2023-04-29T18:22:17.313Z,98802.47
2023-04-29T18:24:18.779Z,98801.34
2023-04-29T18:26:20.777Z,98810.16
2023-04-29T18:28:25.112Z,98804.66
2023-04-29T18:30:27.116Z,98808.75
2023-04-29T18:32:28.626Z,98812.63
2023-04-29T18:34:30.594Z,98805.16
2023-04-29T18:36:32.688Z,98812.84
2023-04-29T18:38:34.236Z,98820.84
2023-04-29T18:40:36.836Z,98822.78
2023-04-29T18:42:39.048Z,98823.28
2023-04-29T18:44:40.576Z,98818.59
2023-04-29T18:46:42.203Z,98816.97
2023-04-29T18:48:43.980Z,98833.22
2023-04-29T18:50:45.440Z,98839.28
2023-04-29T18:52:47.365Z,98832.91
2023-04-29T18:54:48.764Z,98841.75
2023-04-29T18:56:50.257Z,98838.16
2023-04-29T18:58:51.706Z,98832.63
2023-04-29T19:00:53.584Z,98846.97
2023-04-29T19:02:56.377Z,98844.22
2023-04-29T19:04:58.082Z,98856.94
2023-04-29T19:07:01.849Z,98854.69
2023-04-29T19:09:04.090Z,98847.53
2023-04-29T19:11:05.791Z,98853.88
2023-04-29T19:13:07.403Z,98855.81
2023-04-29T19:15:09.302Z,98859.13
2023-04-29T19:17:10.805Z,98862.69
2023-04-29T19:19:12.202Z,98860.75
2023-04-29T19:21:14.808Z,98858.81
2023-04-29T19:23:16.356Z,98859.63
2023-04-29T19:25:17.889Z,98860.47
2023-04-29T19:27:19.596Z,98856.56
2023-04-29T19:29:21.150Z,98866.78
2023-04-29T19:31:22.850Z,98865.69
2023-04-29T19:33:24.475Z,98868.44
2023-04-29T19:35:26.060Z,98865.69
2023-04-29T19:37:27.712Z,98871.72
2023-04-29T19:39:29.163Z,98872.88
2023-04-29T19:41:34.635Z,98874.22
2023-04-29T19:43:36.488Z,98871.72
2023-04-29T19:45:37.912Z,98866.19
2023-04-29T19:47:39.437Z,98869.78
2023-04-29T19:49:40.882Z,98869.78
2023-04-29T19:51:42.360Z,98876.16
2023-04-29T19:53:43.962Z,98878.91
2023-04-29T19:55:45.461Z,98873.38
2023-04-29T19:57:47.282Z,98874.50
2023-04-29T19:59:48.959Z,98883.63
2023-04-29T20:01:52.019Z,98877.25
2023-04-29T20:03:53.520Z,98879.75
2023-04-29T20:05:55.095Z,98878.91
2023-04-29T20:07:56.562Z,98875.31
2023-04-29T20:09:58.048Z,98874.50
2023-04-29T20:11:59.463Z,98880.03
2023-04-29T20:14:00.956Z,98876.44
2023-04-29T20:16:02.533Z,98881.16
2023-04-29T20:18:04.037Z,98879.19
2023-04-29T20:20:08.858Z,98879.50
2023-04-29T20:22:10.714Z,98886.69
2023-04-29T20:24:12.113Z,98879.50
2023-04-29T20:26:13.581Z,98887.81
2023-04-29T20:28:15.001Z,98890.56
2023-04-29T20:30:16.534Z,98888.63
2023-04-29T20:32:18.193Z,98884.22
2023-04-29T20:34:19.986Z,98881.44
2023-04-29T20:36:21.954Z,98886.97
2023-04-29T20:38:24.753Z,98884.53
2023-04-29T20:40:26.475Z,98895.88
2023-04-29T20:42:28.355Z,98893.94
2023-04-29T20:44:29.947Z,98893.41
2023-04-29T20:46:31.613Z,98898.94
2023-04-29T20:48:33.597Z,98897.00
2023-04-29T20:50:35.094Z,98904.47
2023-04-29T20:52:36.608Z,98903.34
2023-04-29T20:54:39.629Z,98898.94
2023-04-29T20:56:41.425Z,98902.53
2023-04-29T20:58:42.822Z,98908.88
2023-04-29T21:00:44.494Z,98903.97
2023-04-29T21:02:45.988Z,98904.47
2023-04-29T21:04:47.625Z,98909.19
2023-04-29T21:06:50.762Z,98907.56
2023-04-29T21:08:52.802Z,98912.81
2023-04-29T21:10:54.223Z,98912.28
2023-04-29T21:12:55.819Z,98906.53
2023-04-29T21:14:59.731Z,98913.72
2023-04-29T21:17:01.501Z,98909.88
2023-04-29T21:19:02.999Z,98913.47
2023-04-29T21:21:07.229Z,98909.06
2023-04-29T21:23:08.702Z,98918.50
2023-04-29T21:25:10.163Z,98913.56
2023-04-29T21:27:11.697Z,98912.97
2023-04-29T21:29:13.208Z,98921.25
2023-04-29T21:31:17.597Z,98914.06
2023-04-29T21:33:22.057Z,98918.50
2023-04-29T21:35:25.719Z,98916.56
2023-04-29T21:37:28.739Z,98923.72
2023-04-29T21:39:33.090Z,98918.19
2023-04-29T21:41:39.951Z,98909.88
2023-04-29T21:43:41.836Z,98924.03
2023-04-29T21:45:44.707Z,98917.34
2023-04-29T21:47:47.724Z,98922.34
2023-04-29T21:49:50.627Z,98919.91
2023-04-29T21:51:52.225Z,98924.59
2023-04-29T21:53:53.761Z,98921.84
2023-04-29T21:55:58.995Z,98934.00
2023-04-29T21:58:00.951Z,98928.78
2023-04-29T22:00:18.823Z,98934.31
2023-04-29T22:02:25.316Z,98930.44
2023-04-29T22:04:33.320Z,98936.78
2023-04-29T22:06:34.878Z,98943.44
2023-04-29T22:08:36.642Z,98941.78
2023-04-29T22:10:40.070Z,98941.25
2023-04-29T22:12:41.674Z,98945.13
2023-04-29T22:14:43.091Z,98944.03
2023-04-29T22:16:44.680Z,98937.66
2023-04-29T22:18:46.265Z,98947.91
2023-04-29T22:20:47.654Z,98942.38
2023-04-29T22:22:49.210Z,98939.59
2023-04-29T22:24:50.868Z,98945.97
2023-04-29T22:26:52.621Z,98941.25
2023-04-29T22:28:54.878Z,98944.63
2023-04-29T22:30:56.279Z,98940.75
2023-04-29T22:33:04.466Z,98947.09
2023-04-29T22:35:08.685Z,98940.75
2023-04-29T22:37:10.175Z,98940.75
2023-04-29T22:39:11.876Z,98942.38
2023-04-29T22:41:13.858Z,98933.56
2023-04-29T22:43:15.770Z,98931.63
2023-04-29T22:45:17.268Z,98936.03
2023-04-29T22:47:18.706Z,98935.22
2023-04-29T22:49:20.142Z,98944.34
2023-04-29T22:51:21.654Z,98939.91
2023-04-29T22:53:23.328Z,98948.22
2023-04-29T22:55:27.333Z,98950.13
2023-04-29T22:57:28.924Z,98950.13
2023-04-29T22:59:46.005Z,98946.84
2023-04-29T23:01:47.612Z,98947.38
2023-04-29T23:03:56.158Z,98948.50
2023-04-29T23:05:59.217Z,98943.28
2023-04-29T23:11:40.748Z,98947.81
2023-04-29T23:19:35.353Z,98957.59
2023-04-29T23:22:53.189Z,98947.66
2023-04-29T23:25:17.247Z,98955.41
2023-04-29T23:28:01.874Z,98959.59
2023-04-29T23:30:08.819Z,98953.53
2023-04-29T23:32:14.878Z,98957.94
2023-04-29T23:34:48.798Z,98960.19
2023-04-29T23:36:54.542Z,98960.47
2023-04-29T23:38:59.373Z,98963.25
2023-04-29T23:41:00.904Z,98956.38
2023-04-29T23:45:24.542Z,98961.38
2023-04-29T23:47:26.219Z,98957.78
2023-04-29T23:49:28.456Z,98960.03
2023-04-29T23:51:31.560Z,98947.84
2023-04-29T23:53:33.033Z,98953.38
2023-04-29T23:55:34.606Z,98947.00
2023-04-29T23:57:36.031Z,98958.38
2023-04-29T23:59:37.435Z,98957.84
